TULLOCH (TUL)

Elevation: 515' · STANISLAUS R basin · Operator: US Bureau of Reclamation

Provisional data, subject to change.
Query executed Thursday at 11:11:48   clock

Select a sensor type for a plot of data.
Note: Reservoir Flows are daily averages.

Earlier

Date RES ELE    STORAGE    RES CHG    TOC STO    ABV TOC    OUTFLOW    INFLOW    EVAP    RIV REL    SPILL    DIS PWR   
 FEET   AF   AF   AF   AF   CFS   CFS   CFS   CFS   CFS   CFS  
11/19/2014 501.38 56806 -298 57000 -194 252 109 7 0 0 252
11/20/2014 501.13 56530 -276 57000 -470 247 109 1 0 0 247
11/21/2014 500.84 56214 -316 57000 -- 250 93 2 0 0 250
11/22/2014 500.49 55834 -380 -- -- 256 66 2 0 0 256
11/23/2014 500.01 55314 -520 -- -- 258 -4 0 0 0 258
11/24/2014 499.54 54812 -502 57000 -2188 263 12 2 0 0 263
11/25/2014 499.82 55111 299 57000 -1889 265 418 2 0 0 265
11/26/2014 500.07 55379 268 57000 -1621 264 401 2 0 0 264
11/27/2014 499.70 54983 -396 57000 -2017 263 65 2 0 0 263
11/28/2014 499.94 55239 256 57000 -1761 256 388 3 0 0 256
11/29/2014 500.30 55628 389 57000 -1372 230 428 2 0 0 230
11/30/2014 499.99 55292 -336 57000 -1708 230 62 1 0 0 230
12/01/2014 499.85 55143 -149 57000 -1857 242 168 1 0 0 242
12/02/2014 499.91 55207 64 57000 -1793 258 293 3 0 0 258
12/03/2014 499.97 55271 64 57000 -1729 247 279 0 0 0 247
12/04/2014 500.34 55672 401 57000 -1328 241 443 0 0 0 241
12/05/2014 500.44 55780 108 57000 -1220 237 294 3 0 0 237
12/06/2014 500.54 55888 108 57000 -1112 242 297 1 0 0 242
12/07/2014 500.14 55455 -433 57000 -1545 240 24 2 0 0 240
12/08/2014 500.21 55531 76 57000 -1469 246 287 3 0 0 246
12/09/2014 500.33 55661 130 57000 -1339 252 320 2 0 0 252
12/10/2014 500.58 55932 271 57000 -1068 260 401 4 0 0 260
12/11/2014 501.49 56927 995 57000 -73 260 764 2 0 0 260
12/12/2014 501.87 57347 420 57000 347 223 454 19 0 0 223
12/13/2014 501.66 57115 -232 57000 115 203 87 1 0 0 203
12/14/2014 501.34 56762 -353 57000 -238 204 27 1 0 0 204
12/15/2014 501.01 56398 -364 57000 -602 202 19 1 0 0 202
12/16/2014 501.15 56552 154 57000 -448 204 283 1 0 0 204
12/17/2014 501.63 57082 530 57000 82 205 475 3 0 0 205
12/18/2014 -- -- -- -- -- -- -- -- -- -- --

Later | Latest

Warning! This data is preliminary and subject to revision.

Show TUL Map | Plot TUL Data | 1 Month TUL Data | Real-Time TUL Data | TUL Info